sensor_id;sensor_type;location;lat;lon;timestamp;P1;durP1;ratioP1;P2;durP2;ratioP2
61015;SDS011;46902;52.920;6.536;2023-03-01T00:01:02;20.50;;;15.80;;
61015;SDS011;46902;52.920;6.536;2023-03-01T00:03:48;19.58;;;14.90;;
61015;SDS011;46902;52.920;6.536;2023-03-01T00:06:14;22.48;;;16.98;;
61015;SDS011;46902;52.920;6.536;2023-03-01T00:08:40;22.35;;;17.95;;
61015;SDS011;46902;52.920;6.536;2023-03-01T00:11:27;19.45;;;16.60;;
61015;SDS011;46902;52.920;6.536;2023-03-01T00:13:54;20.38;;;16.63;;
61015;SDS011;46902;52.920;6.536;2023-03-01T00:16:23;19.70;;;16.00;;
61015;SDS011;46902;52.920;6.536;2023-03-01T00:18:51;19.05;;;15.93;;
61015;SDS011;46902;52.920;6.536;2023-03-01T00:21:17;19.95;;;16.27;;
61015;SDS011;46902;52.920;6.536;2023-03-01T00:23:44;20.45;;;17.13;;
61015;SDS011;46902;52.920;6.536;2023-03-01T00:26:11;27.77;;;18.70;;
61015;SDS011;46902;52.920;6.536;2023-03-01T00:28:38;23.35;;;17.42;;
61015;SDS011;46902;52.920;6.536;2023-03-01T00:31:07;23.90;;;17.83;;
61015;SDS011;46902;52.920;6.536;2023-03-01T00:33:35;21.15;;;16.23;;
61015;SDS011;46902;52.920;6.536;2023-03-01T00:36:01;26.33;;;18.45;;
61015;SDS011;46902;52.920;6.536;2023-03-01T00:38:27;23.45;;;17.60;;
61015;SDS011;46902;52.920;6.536;2023-03-01T00:40:53;29.25;;;18.60;;
61015;SDS011;46902;52.920;6.536;2023-03-01T00:43:19;33.08;;;20.05;;
61015;SDS011;46902;52.920;6.536;2023-03-01T00:45:44;36.17;;;21.00;;
61015;SDS011;46902;52.920;6.536;2023-03-01T00:48:10;30.65;;;21.00;;
61015;SDS011;46902;52.920;6.536;2023-03-01T00:50:35;32.88;;;22.05;;
61015;SDS011;46902;52.920;6.536;2023-03-01T00:53:02;36.55;;;22.95;;
61015;SDS011;46902;52.920;6.536;2023-03-01T00:55:29;47.25;;;24.65;;
61015;SDS011;46902;52.920;6.536;2023-03-01T00:57:55;52.35;;;26.02;;
61015;SDS011;46902;52.920;6.536;2023-03-01T01:00:21;40.65;;;24.20;;
61015;SDS011;46902;52.920;6.536;2023-03-01T01:02:47;41.45;;;23.23;;
61015;SDS011;46902;52.920;6.536;2023-03-01T01:05:13;39.15;;;21.45;;
61015;SDS011;46902;52.920;6.536;2023-03-01T01:07:38;40.85;;;23.15;;
61015;SDS011;46902;52.920;6.536;2023-03-01T01:10:04;38.67;;;23.58;;
61015;SDS011;46902;52.920;6.536;2023-03-01T01:12:31;40.75;;;25.48;;
61015;SDS011;46902;52.920;6.536;2023-03-01T01:14:57;36.05;;;23.25;;
61015;SDS011;46902;52.920;6.536;2023-03-01T01:17:23;39.28;;;23.88;;
61015;SDS011;46902;52.920;6.536;2023-03-01T01:19:48;59.80;;;24.98;;
61015;SDS011;46902;52.920;6.536;2023-03-01T01:22:14;42.40;;;24.00;;
61015;SDS011;46902;52.920;6.536;2023-03-01T01:24:39;51.50;;;26.65;;
61015;SDS011;46902;52.920;6.536;2023-03-01T01:27:05;45.03;;;27.40;;
61015;SDS011;46902;52.920;6.536;2023-03-01T01:29:32;139.52;;;30.08;;
61015;SDS011;46902;52.920;6.536;2023-03-01T01:31:58;144.43;;;30.73;;
61015;SDS011;46902;52.920;6.536;2023-03-01T01:34:23;118.28;;;27.20;;
61015;SDS011;46902;52.920;6.536;2023-03-01T01:36:50;131.50;;;26.80;;
61015;SDS011;46902;52.920;6.536;2023-03-01T01:39:19;210.05;;;28.70;;
61015;SDS011;46902;52.920;6.536;2023-03-01T01:41:45;178.98;;;27.55;;
61015;SDS011;46902;52.920;6.536;2023-03-01T01:46:37;364.15;;;31.13;;
61015;SDS011;46902;52.920;6.536;2023-03-01T01:49:52;362.83;;;32.50;;
61015;SDS011;46902;52.920;6.536;2023-03-01T01:52:11;412.33;;;33.75;;
61015;SDS011;46902;52.920;6.536;2023-03-01T01:55:01;261.08;;;28.95;;
61015;SDS011;46902;52.920;6.536;2023-03-01T01:57:34;383.70;;;29.02;;
61015;SDS011;46902;52.920;6.536;2023-03-01T02:00:04;449.33;;;32.90;;
61015;SDS011;46902;52.920;6.536;2023-03-01T02:02:36;291.20;;;27.63;;
61015;SDS011;46902;52.920;6.536;2023-03-01T02:05:03;240.18;;;26.23;;
61015;SDS011;46902;52.920;6.536;2023-03-01T02:07:38;266.98;;;25.80;;
61015;SDS011;46902;52.920;6.536;2023-03-01T02:10:05;328.08;;;27.40;;
61015;SDS011;46902;52.920;6.536;2023-03-01T02:12:31;302.98;;;26.35;;
61015;SDS011;46902;52.920;6.536;2023-03-01T02:14:57;248.18;;;24.52;;
61015;SDS011;46902;52.920;6.536;2023-03-01T02:17:22;250.93;;;23.83;;
61015;SDS011;46902;52.920;6.536;2023-03-01T02:22:30;213.15;;;22.23;;
61015;SDS011;46902;52.920;6.536;2023-03-01T02:30:30;40.15;;;16.30;;
61015;SDS011;46902;52.920;6.536;2023-03-01T02:32:57;47.08;;;16.23;;
61015;SDS011;46902;52.920;6.536;2023-03-01T02:35:37;24.92;;;16.45;;
61015;SDS011;46902;52.920;6.536;2023-03-01T02:38:05;18.08;;;14.85;;
61015;SDS011;46902;52.920;6.536;2023-03-01T02:40:33;16.40;;;14.70;;
61015;SDS011;46902;52.920;6.536;2023-03-01T02:43:01;17.75;;;15.43;;
61015;SDS011;46902;52.920;6.536;2023-03-01T02:45:31;16.30;;;14.55;;
61015;SDS011;46902;52.920;6.536;2023-03-01T02:47:57;18.33;;;15.63;;
61015;SDS011;46902;52.920;6.536;2023-03-01T02:52:57;17.00;;;13.88;;
61015;SDS011;46902;52.920;6.536;2023-03-01T02:55:29;16.88;;;13.82;;
61015;SDS011;46902;52.920;6.536;2023-03-01T02:57:54;15.05;;;13.50;;
61015;SDS011;46902;52.920;6.536;2023-03-01T03:00:23;15.63;;;14.02;;
61015;SDS011;46902;52.920;6.536;2023-03-01T03:02:51;15.95;;;14.25;;
61015;SDS011;46902;52.920;6.536;2023-03-01T03:05:19;16.08;;;14.45;;
61015;SDS011;46902;52.920;6.536;2023-03-01T03:07:47;15.40;;;13.80;;
61015;SDS011;46902;52.920;6.536;2023-03-01T03:10:18;16.58;;;14.52;;
61015;SDS011;46902;52.920;6.536;2023-03-01T03:12:54;16.42;;;14.60;;
61015;SDS011;46902;52.920;6.536;2023-03-01T03:15:22;16.35;;;14.13;;
61015;SDS011;46902;52.920;6.536;2023-03-01T03:17:49;15.93;;;14.23;;
61015;SDS011;46902;52.920;6.536;2023-03-01T03:20:18;15.35;;;13.75;;
61015;SDS011;46902;52.920;6.536;2023-03-01T03:22:47;15.73;;;13.93;;
61015;SDS011;46902;52.920;6.536;2023-03-01T03:25:15;16.27;;;14.57;;
61015;SDS011;46902;52.920;6.536;2023-03-01T03:27:43;16.30;;;14.60;;
61015;SDS011;46902;52.920;6.536;2023-03-01T03:30:10;14.90;;;13.40;;
61015;SDS011;46902;52.920;6.536;2023-03-01T03:32:42;16.45;;;14.00;;
61015;SDS011;46902;52.920;6.536;2023-03-01T03:35:17;15.45;;;13.82;;
61015;SDS011;46902;52.920;6.536;2023-03-01T03:37:55;15.55;;;13.38;;
61015;SDS011;46902;52.920;6.536;2023-03-01T03:40:33;15.32;;;13.52;;
61015;SDS011;46902;52.920;6.536;2023-03-01T03:43:01;18.42;;;14.30;;
61015;SDS011;46902;52.920;6.536;2023-03-01T03:45:28;15.48;;;13.85;;
61015;SDS011;46902;52.920;6.536;2023-03-01T03:47:54;14.77;;;13.05;;
61015;SDS011;46902;52.920;6.536;2023-03-01T03:50:20;14.38;;;12.88;;
61015;SDS011;46902;52.920;6.536;2023-03-01T03:52:46;15.70;;;13.90;;
61015;SDS011;46902;52.920;6.536;2023-03-01T03:55:12;14.35;;;12.85;;
61015;SDS011;46902;52.920;6.536;2023-03-01T03:57:40;14.05;;;12.32;;
61015;SDS011;46902;52.920;6.536;2023-03-01T04:00:06;14.65;;;13.10;;
61015;SDS011;46902;52.920;6.536;2023-03-01T04:02:40;13.80;;;12.30;;
61015;SDS011;46902;52.920;6.536;2023-03-01T04:05:07;14.00;;;12.50;;
61015;SDS011;46902;52.920;6.536;2023-03-01T04:07:34;13.43;;;12.02;;
61015;SDS011;46902;52.920;6.536;2023-03-01T04:10:02;13.18;;;11.88;;
61015;SDS011;46902;52.920;6.536;2023-03-01T04:12:28;13.95;;;12.45;;
61015;SDS011;46902;52.920;6.536;2023-03-01T04:14:54;11.55;;;10.45;;
61015;SDS011;46902;52.920;6.536;2023-03-01T04:17:19;12.88;;;11.55;;
61015;SDS011;46902;52.920;6.536;2023-03-01T04:19:45;13.02;;;11.63;;
61015;SDS011;46902;52.920;6.536;2023-03-01T04:22:13;12.75;;;11.45;;
61015;SDS011;46902;52.920;6.536;2023-03-01T04:24:43;13.60;;;12.20;;
61015;SDS011;46902;52.920;6.536;2023-03-01T04:27:10;13.70;;;11.80;;
61015;SDS011;46902;52.920;6.536;2023-03-01T04:29:36;12.68;;;11.38;;
61015;SDS011;46902;52.920;6.536;2023-03-01T04:32:02;12.98;;;11.40;;
61015;SDS011;46902;52.920;6.536;2023-03-01T04:34:28;13.15;;;11.27;;
61015;SDS011;46902;52.920;6.536;2023-03-01T04:36:54;12.75;;;11.45;;
61015;SDS011;46902;52.920;6.536;2023-03-01T04:39:20;13.77;;;12.32;;
61015;SDS011;46902;52.920;6.536;2023-03-01T04:41:46;14.38;;;11.98;;
61015;SDS011;46902;52.920;6.536;2023-03-01T04:44:12;12.15;;;10.85;;
61015;SDS011;46902;52.920;6.536;2023-03-01T04:46:37;13.20;;;11.80;;
61015;SDS011;46902;52.920;6.536;2023-03-01T04:49:03;13.43;;;11.73;;
61015;SDS011;46902;52.920;6.536;2023-03-01T04:51:30;12.93;;;11.52;;
61015;SDS011;46902;52.920;6.536;2023-03-01T04:53:57;12.82;;;11.52;;
61015;SDS011;46902;52.920;6.536;2023-03-01T04:56:23;11.90;;;10.63;;
61015;SDS011;46902;52.920;6.536;2023-03-01T04:58:49;11.85;;;10.40;;
61015;SDS011;46902;52.920;6.536;2023-03-01T05:01:16;12.20;;;10.82;;
61015;SDS011;46902;52.920;6.536;2023-03-01T05:03:45;11.93;;;10.55;;
61015;SDS011;46902;52.920;6.536;2023-03-01T05:06:13;12.10;;;10.77;;
61015;SDS011;46902;52.920;6.536;2023-03-01T05:08:40;11.32;;;10.15;;
61015;SDS011;46902;52.920;6.536;2023-03-01T05:11:07;11.60;;;10.00;;
61015;SDS011;46902;52.920;6.536;2023-03-01T05:13:34;11.13;;;9.93;;
61015;SDS011;46902;52.920;6.536;2023-03-01T05:16:04;10.93;;;9.63;;
61015;SDS011;46902;52.920;6.536;2023-03-01T05:18:31;11.02;;;9.88;;
61015;SDS011;46902;52.920;6.536;2023-03-01T05:21:16;12.00;;;9.63;;
61015;SDS011;46902;52.920;6.536;2023-03-01T05:23:42;11.82;;;9.50;;
61015;SDS011;46902;52.920;6.536;2023-03-01T05:26:08;10.77;;;9.65;;
61015;SDS011;46902;52.920;6.536;2023-03-01T05:28:34;11.13;;;9.90;;
61015;SDS011;46902;52.920;6.536;2023-03-01T05:31:00;12.13;;;10.43;;
61015;SDS011;46902;52.920;6.536;2023-03-01T05:33:26;11.20;;;10.02;;
61015;SDS011;46902;52.920;6.536;2023-03-01T05:35:52;14.95;;;11.15;;
61015;SDS011;46902;52.920;6.536;2023-03-01T05:38:19;11.52;;;9.85;;
61015;SDS011;46902;52.920;6.536;2023-03-01T05:40:46;12.35;;;10.15;;
61015;SDS011;46902;52.920;6.536;2023-03-01T05:43:14;11.93;;;10.27;;
61015;SDS011;46902;52.920;6.536;2023-03-01T05:45:41;12.80;;;10.93;;
61015;SDS011;46902;52.920;6.536;2023-03-01T05:48:07;11.32;;;10.05;;
61015;SDS011;46902;52.920;6.536;2023-03-01T05:50:34;13.38;;;11.23;;
61015;SDS011;46902;52.920;6.536;2023-03-01T05:53:22;13.35;;;10.75;;
61015;SDS011;46902;52.920;6.536;2023-03-01T05:55:47;13.15;;;11.30;;
61015;SDS011;46902;52.920;6.536;2023-03-01T05:58:15;12.85;;;10.73;;
61015;SDS011;46902;52.920;6.536;2023-03-01T06:00:44;14.45;;;10.57;;
61015;SDS011;46902;52.920;6.536;2023-03-01T06:03:11;14.10;;;10.73;;
61015;SDS011;46902;52.920;6.536;2023-03-01T06:05:38;13.32;;;11.07;;
61015;SDS011;46902;52.920;6.536;2023-03-01T06:08:05;13.15;;;10.68;;
61015;SDS011;46902;52.920;6.536;2023-03-01T06:10:30;12.27;;;10.93;;
61015;SDS011;46902;52.920;6.536;2023-03-01T06:12:56;12.95;;;10.20;;
61015;SDS011;46902;52.920;6.536;2023-03-01T06:15:22;11.35;;;10.02;;
61015;SDS011;46902;52.920;6.536;2023-03-01T06:17:49;13.10;;;10.27;;
61015;SDS011;46902;52.920;6.536;2023-03-01T06:20:21;11.98;;;9.77;;
61015;SDS011;46902;52.920;6.536;2023-03-01T06:22:48;11.25;;;9.57;;
61015;SDS011;46902;52.920;6.536;2023-03-01T06:25:15;14.38;;;10.55;;
61015;SDS011;46902;52.920;6.536;2023-03-01T06:27:43;11.48;;;10.27;;
61015;SDS011;46902;52.920;6.536;2023-03-01T06:30:11;14.13;;;10.65;;
61015;SDS011;46902;52.920;6.536;2023-03-01T06:32:38;12.73;;;10.00;;
61015;SDS011;46902;52.920;6.536;2023-03-01T06:35:07;11.15;;;9.70;;
61015;SDS011;46902;52.920;6.536;2023-03-01T06:37:33;14.05;;;10.57;;
61015;SDS011;46902;52.920;6.536;2023-03-01T06:40:00;10.98;;;9.88;;
61015;SDS011;46902;52.920;6.536;2023-03-01T06:42:31;10.85;;;9.35;;
61015;SDS011;46902;52.920;6.536;2023-03-01T06:44:57;9.85;;;8.80;;
61015;SDS011;46902;52.920;6.536;2023-03-01T06:47:23;12.32;;;8.85;;
61015;SDS011;46902;52.920;6.536;2023-03-01T06:49:48;11.90;;;9.90;;
61015;SDS011;46902;52.920;6.536;2023-03-01T06:52:14;10.77;;;9.55;;
61015;SDS011;46902;52.920;6.536;2023-03-01T06:54:39;12.27;;;10.93;;
61015;SDS011;46902;52.920;6.536;2023-03-01T06:57:05;14.13;;;10.90;;
61015;SDS011;46902;52.920;6.536;2023-03-01T06:59:31;13.07;;;10.88;;
61015;SDS011;46902;52.920;6.536;2023-03-01T07:01:56;13.40;;;10.43;;
61015;SDS011;46902;52.920;6.536;2023-03-01T07:04:22;13.80;;;10.85;;
61015;SDS011;46902;52.920;6.536;2023-03-01T07:06:47;15.25;;;11.20;;
61015;SDS011;46902;52.920;6.536;2023-03-01T07:09:20;13.68;;;11.35;;
61015;SDS011;46902;52.920;6.536;2023-03-01T07:11:48;12.95;;;11.05;;
61015;SDS011;46902;52.920;6.536;2023-03-01T07:14:14;15.48;;;11.68;;
61015;SDS011;46902;52.920;6.536;2023-03-01T07:16:40;14.63;;;11.73;;
61015;SDS011;46902;52.920;6.536;2023-03-01T07:19:06;13.60;;;11.82;;
61015;SDS011;46902;52.920;6.536;2023-03-01T07:21:31;16.30;;;11.55;;
61015;SDS011;46902;52.920;6.536;2023-03-01T07:23:57;17.52;;;12.50;;
61015;SDS011;46902;52.920;6.536;2023-03-01T07:26:23;15.85;;;13.07;;
61015;SDS011;46902;52.920;6.536;2023-03-01T07:28:48;17.17;;;13.13;;
61015;SDS011;46902;52.920;6.536;2023-03-01T07:31:14;16.25;;;13.05;;
61015;SDS011;46902;52.920;6.536;2023-03-01T07:33:40;16.83;;;13.60;;
61015;SDS011;46902;52.920;6.536;2023-03-01T07:36:06;24.23;;;15.32;;
61015;SDS011;46902;52.920;6.536;2023-03-01T07:38:31;20.77;;;15.95;;
61015;SDS011;46902;52.920;6.536;2023-03-01T07:41:01;22.13;;;17.55;;
61015;SDS011;46902;52.920;6.536;2023-03-01T07:43:28;24.42;;;17.63;;
61015;SDS011;46902;52.920;6.536;2023-03-01T07:45:57;24.92;;;17.02;;
61015;SDS011;46902;52.920;6.536;2023-03-01T07:48:23;22.92;;;15.68;;
61015;SDS011;46902;52.920;6.536;2023-03-01T07:50:49;21.33;;;16.55;;
61015;SDS011;46902;52.920;6.536;2023-03-01T07:53:14;23.58;;;15.90;;
61015;SDS011;46902;52.920;6.536;2023-03-01T07:55:40;22.08;;;16.02;;
61015;SDS011;46902;52.920;6.536;2023-03-01T07:58:06;20.85;;;15.80;;
61015;SDS011;46902;52.920;6.536;2023-03-01T08:00:31;22.20;;;16.13;;
61015;SDS011;46902;52.920;6.536;2023-03-01T08:03:00;23.90;;;17.00;;
61015;SDS011;46902;52.920;6.536;2023-03-01T08:05:27;23.17;;;17.80;;
61015;SDS011;46902;52.920;6.536;2023-03-01T08:07:53;21.05;;;16.65;;
61015;SDS011;46902;52.920;6.536;2023-03-01T08:10:19;25.80;;;16.70;;
61015;SDS011;46902;52.920;6.536;2023-03-01T08:12:44;23.25;;;17.30;;
61015;SDS011;46902;52.920;6.536;2023-03-01T08:15:10;24.85;;;18.90;;
61015;SDS011;46902;52.920;6.536;2023-03-01T08:17:37;26.50;;;18.63;;
61015;SDS011;46902;52.920;6.536;2023-03-01T08:20:03;28.70;;;20.42;;
61015;SDS011;46902;52.920;6.536;2023-03-01T08:22:32;25.40;;;19.52;;
61015;SDS011;46902;52.920;6.536;2023-03-01T08:24:57;28.02;;;19.67;;
61015;SDS011;46902;52.920;6.536;2023-03-01T08:27:23;26.45;;;19.95;;
61015;SDS011;46902;52.920;6.536;2023-03-01T08:29:48;26.05;;;20.30;;
61015;SDS011;46902;52.920;6.536;2023-03-01T08:32:14;30.17;;;21.75;;
61015;SDS011;46902;52.920;6.536;2023-03-01T08:34:39;29.60;;;21.98;;
61015;SDS011;46902;52.920;6.536;2023-03-01T08:37:05;27.23;;;21.63;;
61015;SDS011;46902;52.920;6.536;2023-03-01T08:39:31;29.13;;;21.30;;
61015;SDS011;46902;52.920;6.536;2023-03-01T08:41:56;27.75;;;20.77;;
61015;SDS011;46902;52.920;6.536;2023-03-01T08:44:22;28.58;;;21.83;;
61015;SDS011;46902;52.920;6.536;2023-03-01T08:46:48;32.63;;;22.42;;
61015;SDS011;46902;52.920;6.536;2023-03-01T08:49:18;27.17;;;21.58;;
61015;SDS011;46902;52.920;6.536;2023-03-01T08:51:45;29.20;;;22.88;;
61015;SDS011;46902;52.920;6.536;2023-03-01T08:54:12;28.88;;;21.80;;
61015;SDS011;46902;52.920;6.536;2023-03-01T08:56:40;27.92;;;20.83;;
61015;SDS011;46902;52.920;6.536;2023-03-01T08:59:06;27.02;;;20.00;;
61015;SDS011;46902;52.920;6.536;2023-03-01T09:01:32;27.30;;;21.35;;
61015;SDS011;46902;52.920;6.536;2023-03-01T09:03:58;25.63;;;20.10;;
61015;SDS011;46902;52.920;6.536;2023-03-01T09:06:24;24.52;;;19.10;;
61015;SDS011;46902;52.920;6.536;2023-03-01T09:08:50;20.27;;;16.98;;
61015;SDS011;46902;52.920;6.536;2023-03-01T09:11:20;22.02;;;16.65;;
61015;SDS011;46902;52.920;6.536;2023-03-01T09:13:47;22.75;;;15.98;;
61015;SDS011;46902;52.920;6.536;2023-03-01T09:16:14;20.58;;;16.35;;
61015;SDS011;46902;52.920;6.536;2023-03-01T09:18:41;20.50;;;16.92;;
61015;SDS011;46902;52.920;6.536;2023-03-01T09:21:11;20.35;;;16.20;;
61015;SDS011;46902;52.920;6.536;2023-03-01T09:23:40;18.25;;;15.70;;
61015;SDS011;46902;52.920;6.536;2023-03-01T09:26:07;16.05;;;14.40;;
61015;SDS011;46902;52.920;6.536;2023-03-01T09:28:35;18.90;;;15.60;;
61015;SDS011;46902;52.920;6.536;2023-03-01T09:31:02;19.60;;;16.17;;
61015;SDS011;46902;52.920;6.536;2023-03-01T09:33:28;19.55;;;16.83;;
61015;SDS011;46902;52.920;6.536;2023-03-01T09:36:05;19.13;;;16.83;;
61015;SDS011;46902;52.920;6.536;2023-03-01T09:38:33;22.83;;;18.35;;
61015;SDS011;46902;52.920;6.536;2023-03-01T09:40:59;24.30;;;18.10;;
61015;SDS011;46902;52.920;6.536;2023-03-01T09:46:13;22.08;;;18.85;;
61015;SDS011;46902;52.920;6.536;2023-03-01T09:48:44;21.10;;;16.55;;
61015;SDS011;46902;52.920;6.536;2023-03-01T09:51:17;20.52;;;15.88;;
61015;SDS011;46902;52.920;6.536;2023-03-01T09:53:48;23.25;;;17.20;;
61015;SDS011;46902;52.920;6.536;2023-03-01T09:56:19;22.45;;;18.67;;
61015;SDS011;46902;52.920;6.536;2023-03-01T10:01:31;20.23;;;17.30;;
61015;SDS011;46902;52.920;6.536;2023-03-01T10:04:04;21.50;;;18.13;;
61015;SDS011;46902;52.920;6.536;2023-03-01T10:09:35;18.20;;;14.25;;
61015;SDS011;46902;52.920;6.536;2023-03-01T10:12:26;15.65;;;13.18;;
61015;SDS011;46902;52.920;6.536;2023-03-01T10:20:14;13.07;;;9.32;;
61015;SDS011;46902;52.920;6.536;2023-03-01T10:22:43;14.13;;;9.67;;
61015;SDS011;46902;52.920;6.536;2023-03-01T10:25:15;13.80;;;10.52;;
61015;SDS011;46902;52.920;6.536;2023-03-01T10:30:17;9.82;;;8.40;;
61015;SDS011;46902;52.920;6.536;2023-03-01T10:32:46;10.48;;;8.90;;
61015;SDS011;46902;52.920;6.536;2023-03-01T10:35:20;11.23;;;8.57;;
61015;SDS011;46902;52.920;6.536;2023-03-01T10:37:58;12.43;;;9.98;;
61015;SDS011;46902;52.920;6.536;2023-03-01T10:40:27;14.27;;;10.98;;
61015;SDS011;46902;52.920;6.536;2023-03-01T10:42:53;15.55;;;12.13;;
61015;SDS011;46902;52.920;6.536;2023-03-01T10:48:04;14.75;;;11.63;;
61015;SDS011;46902;52.920;6.536;2023-03-01T10:50:39;14.38;;;11.05;;
61015;SDS011;46902;52.920;6.536;2023-03-01T10:56:11;15.15;;;10.60;;
61015;SDS011;46902;52.920;6.536;2023-03-01T10:58:39;17.15;;;11.50;;
61015;SDS011;46902;52.920;6.536;2023-03-01T11:04:23;14.75;;;11.50;;
61015;SDS011;46902;52.920;6.536;2023-03-01T11:06:42;15.98;;;11.95;;
61015;SDS011;46902;52.920;6.536;2023-03-01T11:09:15;14.93;;;12.20;;
61015;SDS011;46902;52.920;6.536;2023-03-01T11:11:46;15.88;;;12.07;;
61015;SDS011;46902;52.920;6.536;2023-03-01T11:14:17;14.50;;;11.80;;
61015;SDS011;46902;52.920;6.536;2023-03-01T11:16:58;15.00;;;12.25;;
61015;SDS011;46902;52.920;6.536;2023-03-01T11:19:31;16.73;;;12.40;;
61015;SDS011;46902;52.920;6.536;2023-03-01T11:22:02;15.50;;;11.50;;
61015;SDS011;46902;52.920;6.536;2023-03-01T11:24:43;17.38;;;13.23;;
61015;SDS011;46902;52.920;6.536;2023-03-01T11:27:15;11.43;;;10.23;;
61015;SDS011;46902;52.920;6.536;2023-03-01T11:29:45;14.13;;;11.15;;
61015;SDS011;46902;52.920;6.536;2023-03-01T11:32:33;14.07;;;11.20;;
61015;SDS011;46902;52.920;6.536;2023-03-01T11:35:10;13.32;;;10.68;;
61015;SDS011;46902;52.920;6.536;2023-03-01T11:37:58;14.50;;;10.63;;
61015;SDS011;46902;52.920;6.536;2023-03-01T11:40:35;13.93;;;10.77;;
61015;SDS011;46902;52.920;6.536;2023-03-01T11:45:43;13.32;;;10.65;;
61015;SDS011;46902;52.920;6.536;2023-03-01T11:51:13;15.13;;;10.73;;
61015;SDS011;46902;52.920;6.536;2023-03-01T11:53:56;13.95;;;10.98;;
61015;SDS011;46902;52.920;6.536;2023-03-01T11:56:47;14.68;;;10.82;;
61015;SDS011;46902;52.920;6.536;2023-03-01T12:07:35;14.68;;;10.85;;
61015;SDS011;46902;52.920;6.536;2023-03-01T12:24:10;17.10;;;13.50;;
61015;SDS011;46902;52.920;6.536;2023-03-01T12:32:47;13.80;;;9.95;;
61015;SDS011;46902;52.920;6.536;2023-03-01T12:35:47;13.55;;;11.25;;
61015;SDS011;46902;52.920;6.536;2023-03-01T12:38:50;12.70;;;11.23;;
61015;SDS011;46902;52.920;6.536;2023-03-01T12:41:43;18.50;;;11.93;;
61015;SDS011;46902;52.920;6.536;2023-03-01T12:47:23;15.80;;;11.65;;
61015;SDS011;46902;52.920;6.536;2023-03-01T12:49:59;12.93;;;10.75;;
61015;SDS011;46902;52.920;6.536;2023-03-01T13:08:14;12.60;;;11.32;;
61015;SDS011;46902;52.920;6.536;2023-03-01T13:11:00;14.73;;;11.05;;
61015;SDS011;46902;52.920;6.536;2023-03-01T13:13:28;14.25;;;12.40;;
61015;SDS011;46902;52.920;6.536;2023-03-01T13:15:55;12.95;;;11.57;;
61015;SDS011;46902;52.920;6.536;2023-03-01T13:20:53;13.25;;;11.85;;
61015;SDS011;46902;52.920;6.536;2023-03-01T13:33:41;15.52;;;11.88;;
61015;SDS011;46902;52.920;6.536;2023-03-01T13:36:10;14.85;;;11.85;;
61015;SDS011;46902;52.920;6.536;2023-03-01T13:39:30;13.20;;;11.80;;
61015;SDS011;46902;52.920;6.536;2023-03-01T13:41:56;14.98;;;12.40;;
61015;SDS011;46902;52.920;6.536;2023-03-01T13:52:39;15.65;;;12.15;;
61015;SDS011;46902;52.920;6.536;2023-03-01T13:57:40;15.60;;;12.20;;
61015;SDS011;46902;52.920;6.536;2023-03-01T14:03:27;13.63;;;11.75;;
61015;SDS011;46902;52.920;6.536;2023-03-01T14:08:29;15.23;;;12.38;;
61015;SDS011;46902;52.920;6.536;2023-03-01T14:13:58;11.90;;;10.02;;
61015;SDS011;46902;52.920;6.536;2023-03-01T14:19:20;11.23;;;9.95;;
61015;SDS011;46902;52.920;6.536;2023-03-01T14:24:50;10.25;;;8.98;;
61015;SDS011;46902;52.920;6.536;2023-03-01T14:27:21;10.15;;;8.38;;
61015;SDS011;46902;52.920;6.536;2023-03-01T14:29:55;11.07;;;8.60;;
61015;SDS011;46902;52.920;6.536;2023-03-01T14:32:27;10.60;;;9.10;;
61015;SDS011;46902;52.920;6.536;2023-03-01T14:34:54;12.73;;;8.90;;
61015;SDS011;46902;52.920;6.536;2023-03-01T14:37:27;10.50;;;8.85;;
61015;SDS011;46902;52.920;6.536;2023-03-01T14:39:55;11.80;;;8.55;;
61015;SDS011;46902;52.920;6.536;2023-03-01T14:42:23;11.43;;;9.10;;
61015;SDS011;46902;52.920;6.536;2023-03-01T14:44:52;10.48;;;8.45;;
61015;SDS011;46902;52.920;6.536;2023-03-01T14:47:33;11.23;;;8.43;;
61015;SDS011;46902;52.920;6.536;2023-03-01T14:50:07;10.32;;;8.35;;
61015;SDS011;46902;52.920;6.536;2023-03-01T14:52:41;10.85;;;8.70;;
61015;SDS011;46902;52.920;6.536;2023-03-01T14:55:20;9.50;;;7.75;;
61015;SDS011;46902;52.920;6.536;2023-03-01T14:57:57;8.98;;;7.93;;
61015;SDS011;46902;52.920;6.536;2023-03-01T15:00:27;9.73;;;7.32;;
61015;SDS011;46902;52.920;6.536;2023-03-01T15:02:55;10.25;;;8.45;;
61015;SDS011;46902;52.920;6.536;2023-03-01T15:05:34;9.93;;;8.38;;
61015;SDS011;46902;52.920;6.536;2023-03-01T15:08:02;11.07;;;9.48;;
61015;SDS011;46902;52.920;6.536;2023-03-01T15:10:31;11.30;;;8.57;;
61015;SDS011;46902;52.920;6.536;2023-03-01T15:13:13;10.90;;;8.85;;
61015;SDS011;46902;52.920;6.536;2023-03-01T15:15:50;12.20;;;8.75;;
61015;SDS011;46902;52.920;6.536;2023-03-01T15:20:45;11.38;;;9.73;;
61015;SDS011;46902;52.920;6.536;2023-03-01T15:23:25;11.60;;;8.70;;
61015;SDS011;46902;52.920;6.536;2023-03-01T15:25:53;10.32;;;8.90;;
61015;SDS011;46902;52.920;6.536;2023-03-01T15:28:24;11.95;;;9.38;;
61015;SDS011;46902;52.920;6.536;2023-03-01T15:30:52;10.85;;;9.50;;
61015;SDS011;46902;52.920;6.536;2023-03-01T15:35:52;11.77;;;9.82;;
61015;SDS011;46902;52.920;6.536;2023-03-01T15:38:32;17.50;;;10.02;;
61015;SDS011;46902;52.920;6.536;2023-03-01T15:41:26;11.25;;;9.63;;
61015;SDS011;46902;52.920;6.536;2023-03-01T15:43:55;11.35;;;9.43;;
61015;SDS011;46902;52.920;6.536;2023-03-01T15:48:51;10.60;;;9.40;;
61015;SDS011;46902;52.920;6.536;2023-03-01T15:51:22;12.63;;;9.70;;
61015;SDS011;46902;52.920;6.536;2023-03-01T15:53:54;13.00;;;10.70;;
61015;SDS011;46902;52.920;6.536;2023-03-01T15:56:20;12.45;;;10.90;;
61015;SDS011;46902;52.920;6.536;2023-03-01T15:58:46;12.23;;;10.27;;
61015;SDS011;46902;52.920;6.536;2023-03-01T16:01:15;12.98;;;11.00;;
61015;SDS011;46902;52.920;6.536;2023-03-01T16:06:10;13.82;;;10.75;;
61015;SDS011;46902;52.920;6.536;2023-03-01T16:08:37;12.18;;;10.38;;
61015;SDS011;46902;52.920;6.536;2023-03-01T16:11:04;12.45;;;11.15;;
61015;SDS011;46902;52.920;6.536;2023-03-01T16:13:33;14.52;;;11.18;;
61015;SDS011;46902;52.920;6.536;2023-03-01T16:15:59;13.57;;;11.20;;
61015;SDS011;46902;52.920;6.536;2023-03-01T16:18:25;13.73;;;11.63;;
61015;SDS011;46902;52.920;6.536;2023-03-01T16:20:50;17.15;;;12.25;;
61015;SDS011;46902;52.920;6.536;2023-03-01T16:23:16;13.10;;;11.73;;
61015;SDS011;46902;52.920;6.536;2023-03-01T16:25:42;15.45;;;12.52;;
61015;SDS011;46902;52.920;6.536;2023-03-01T16:28:07;14.30;;;11.77;;
61015;SDS011;46902;52.920;6.536;2023-03-01T16:30:36;14.57;;;11.52;;
61015;SDS011;46902;52.920;6.536;2023-03-01T16:33:04;13.60;;;12.13;;
61015;SDS011;46902;52.920;6.536;2023-03-01T16:35:33;13.45;;;12.05;;
61015;SDS011;46902;52.920;6.536;2023-03-01T16:38:04;13.65;;;12.05;;
61015;SDS011;46902;52.920;6.536;2023-03-01T16:40:29;16.45;;;11.70;;
61015;SDS011;46902;52.920;6.536;2023-03-01T16:42:55;14.30;;;11.98;;
61015;SDS011;46902;52.920;6.536;2023-03-01T16:45:25;16.25;;;12.48;;
61015;SDS011;46902;52.920;6.536;2023-03-01T16:47:58;14.85;;;12.48;;
61015;SDS011;46902;52.920;6.536;2023-03-01T16:50:24;13.82;;;12.27;;
61015;SDS011;46902;52.920;6.536;2023-03-01T16:52:50;15.82;;;13.55;;
61015;SDS011;46902;52.920;6.536;2023-03-01T16:55:15;14.65;;;12.65;;